DC1NF-7 Weather Reports


Display with metric or nautical units.
time (UTC)temp
F
wind
direction
speed
MPH
gust
MPH
rain 1hr
in
rain 24hr
in
rain mn
in
humidity
%
barometer
mb
20240715001537 59 0.0 0.0 0.00 0.00 0.00 87 1011.4
20240715000528 59 0.0 0.0 0.00 0.00 0.00 86 1011.4
20240714235525 59 0.0 2.0 0.00 0.00 0.00 85 1011.3
20240714234615 59 0.0 2.0 0.00 0.00 0.00 86 1011.5
20240714233605 59 0.0 0.0 0.00 0.00 0.00 85 1011.4
20240714232601 60 113 0.0 2.0 0.00 0.00 0.00 84 1011.4
20240714231551 60 0.0 0.0 0.00 0.00 0.00 84 1011.5
20240714230541 61 0.0 2.0 0.00 0.00 0.00 83 1011.4
20240714225536 61 225 0.0 2.0 0.00 0.00 0.00 81 1011.4
20240714224528 61 0.0 0.0 0.00 0.00 0.00 81 1011.4
20240714223528 62 0.0 0.0 0.00 0.00 0.00 79 1011.4
20240714222053 0 0.0 0.0 0.00 0.00 0.00 1011.5
20240714220604 63 0.0 0.0 0.00 0.00 0.00 77 1011.3
20240714215601 63 0.0 0.0 0.00 0.00 0.00 75 1011.4
20240714214552 64 0.0 0.0 0.00 0.00 0.00 74 1011.4
20240714213548 64 0.0 2.0 0.00 0.00 0.00 74 1011.5
20240714212538 65 0.0 0.0 0.00 0.00 0.00 71 1011.4
20240714211528 65 0.0 0.0 0.00 0.00 0.00 70 1011.5
20240714210529 66 0.0 0.0 0.00 0.00 0.00 69 1011.4
20240714205518 66 0.0 2.0 0.00 0.00 0.00 67 1011.4
20240714204515 66 0.0 2.0 0.00 0.00 0.00 69 1011.4
20240714203612 66 90 0.0 2.0 0.00 0.00 0.00 71 1011.4
20240714202603 67 0.0 2.0 0.00 0.00 0.00 70 1011.3
20240714201600 68 0.0 0.0 0.00 0.00 0.00 68 1011.2
20240714200550 68 0.0 0.0 0.00 0.00 0.00 66 1011.3
20240714195542 68 237 1.0 2.0 0.00 0.00 0.00 64 1011.2
20240714194540 68 0.0 2.0 0.00 0.00 0.00 64 1010.7
20240714193528 68 93 2.0 2.0 0.00 0.00 0.00 63 1010.7
20240714192525 68 97 2.0 2.0 0.00 0.00 0.00 63 1010.8
20240714191516 70 83 0.0 2.0 0.00 0.00 0.00 67 1011.0
20240714190612 69 90 0.0 2.0 0.00 0.00 0.00 67 1011.2
20240714185602 70 90 1.0 2.0 0.00 0.00 0.00 67 1011.1
20240714184552 72 0.0 2.0 0.00 0.00 0.00 58 1011.0
20240714183548 72 0.0 0.0 0.00 0.00 0.00 60 1010.9
20240714182538 73 0.0 0.0 0.00 0.00 0.00 54 1011.0
20240714181528 72 0.0 2.0 0.00 0.00 0.00 58 1011.0
20240714180528 73 0.0 2.0 0.00 0.00 0.00 54 1011.0
20240714175516 74 90 0.0 2.0 0.00 0.00 0.00 49 1011.0
20240714174613 74 0.0 2.0 0.00 0.00 0.00 47 1011.0
20240714173604 74 0.0 2.0 0.00 0.00 0.00 51 1011.0
20240714172600 75 99 1.0 2.0 0.00 0.00 0.00 47 1011.0
20240714171550 75 236 0.0 2.0 0.00 0.00 0.00 44 1011.0
20240714170542 75 239 1.0 2.0 0.00 0.00 0.00 43 1011.1
20240714165539 76 248 0.0 2.0 0.00 0.00 0.00 44 1011.1
20240714164536 76 232 1.0 4.0 0.00 0.00 0.00 41 1011.0
20240714163527 76 248 2.0 4.0 0.00 0.00 0.00 40 1010.8
20240714160521 77 235 3.0 6.0 0.00 0.00 0.00 39 1010.9
20240714155520 78 224 2.0 4.0 0.00 0.00 0.00 37 1010.9
20240714154613 78 228 4.0 8.0 0.00 0.00 0.00 37 1010.9
20240714153609 78 239 3.0 8.0 0.00 0.00 0.00 36 1010.7
20240714152606 79 242 3.0 6.0 0.00 0.00 0.00 35 1010.6
20240714151603 79 243 2.0 6.0 0.00 0.00 0.00 35 1010.6
20240714150602 79 247 4.0 9.0 0.00 0.00 0.00 34 1010.6
20240714145555 80 201 4.0 8.0 0.00 0.00 0.00 34 1010.5
20240714144551 78 245 5.0 9.0 0.00 0.00 0.00 36 1010.6
20240714143547 78 222 3.0 6.0 0.00 0.00 0.00 34 1010.8
20240714142545 78 239 3.0 6.0 0.00 0.00 0.00 36 1010.8
20240714141541 79 201 4.0 8.0 0.00 0.00 0.00 35 1010.8
20240714140534 80 222 3.0 7.0 0.00 0.00 0.00 33 1010.9
20240714135531 81 224 3.0 8.0 0.00 0.00 0.00 33 1010.9
20240714134532 80 235 2.0 4.0 0.00 0.00 0.00 33 1010.8
20240714133528 79 246 5.0 9.0 0.00 0.00 0.00 32 1010.8
20240714132524 80 238 4.0 9.0 0.00 0.00 0.00 34 1010.8
20240714131519 78 194 4.0 8.0 0.00 0.00 0.00 33 1010.9
20240714130613 79 201 5.0 9.0 0.00 0.00 0.00 34 1010.9
20240714125610 79 252 4.0 8.0 0.00 0.00 0.00 33 1011.1
20240714124607 77 239 4.0 8.0 0.00 0.00 0.00 35 1011.2
20240714123604 78 176 3.0 7.0 0.00 0.00 0.00 35 1011.0
20240714122600 78 239 4.0 11.0 0.00 0.00 0.00 36 1011.2
20240714121601 77 201 2.0 4.0 0.00 0.00 0.00 38 1011.2
20240714120554 78 203 4.0 8.0 0.00 0.00 0.00 38 1011.1
20240714115552 78 195 6.0 11.0 0.00 0.00 0.00 38 1011.3
20240714114545 76 236 4.0 11.0 0.00 0.00 0.00 40 1011.3
20240714113545 76 231 2.0 4.0 0.00 0.00 0.00 38 1011.1
20240714112542 77 231 4.0 11.0 0.00 0.00 0.00 40 1011.1
20240714111535 77 212 4.0 8.0 0.00 0.00 0.00 40 1011.1
20240714110532 76 235 3.0 6.0 0.00 0.00 0.00 40 1011.3
20240714105528 75 229 3.0 6.0 0.00 0.00 0.00 41 1011.2
20240714104527 75 218 3.0 11.0 0.00 0.00 0.00 41 1011.1
20240714103519 74 191 6.0 11.0 0.00 0.00 0.00 41 1011.3
20240714102515 75 163 2.0 7.0 0.00 0.00 0.00 42 1011.3
20240714101611 74 216 3.0 8.0 0.00 0.00 0.00 43 1011.4
20240714100608 74 214 2.0 4.0 0.00 0.00 0.00 46 1011.5
20240714095607 74 231 3.0 7.0 0.00 0.00 0.00 47 1011.5
20240714094601 74 187 3.0 8.0 0.00 0.00 0.00 49 1011.6
20240714093558 74 190 4.0 8.0 0.00 0.01 0.00 49 1011.5
20240714092557 73 195 3.0 6.0 0.00 0.01 0.00 51 1011.6
20240714091549 74 197 0.0 2.0 0.00 0.01 0.00 49 1011.7
20240714090546 73 154 2.0 6.0 0.00 0.01 0.00 52 1011.8
20240714085545 73 177 1.0 4.0 0.00 0.01 0.00 50 1011.8
20240714084539 72 218 1.0 4.0 0.00 0.01 0.00 51 1011.7
20240714083536 71 182 2.0 4.0 0.00 0.01 0.00 52 1011.7
20240714082534 71 187 2.0 6.0 0.00 0.01 0.00 52 1011.8
20240714081533 70 211 1.0 2.0 0.00 0.01 0.00 53 1011.8
20240714080529 70 197 2.0 4.0 0.00 0.01 0.00 53 1011.8
20240714075522 71 101 0.0 2.0 0.00 0.01 0.00 55 1011.8
20240714074521 70 232 1.0 2.0 0.00 0.01 0.00 61 1011.8
20240714073615 67 220 1.0 2.0 0.00 0.01 0.00 66 1011.8
20240714072611 69 180 0.0 2.0 0.00 0.01 0.00 61 1011.7
20240714071609 67 73 1.0 2.0 0.00 0.01 0.00 70 1011.8
20240714070604 66 151 0.0 2.0 0.00 0.01 0.00 74 1011.8
20240714065601 64 68 0.0 2.0 0.00 0.01 0.00 74 1011.9
20240714064559 64 179 2.0 4.0 0.00 0.01 0.00 77 1011.9
20240714063555 64 0.0 2.0 0.00 0.01 0.00 78 1011.9
20240714062551 64 225 0.0 2.0 0.00 0.01 0.00 79 1011.9
20240714061544 63 203 0.0 2.0 0.00 0.01 0.00 79 1011.8
20240714060542 63 0.0 2.0 0.00 0.01 0.00 79 1011.9
20240714055536 63 75 0.0 2.0 0.00 0.01 0.00 79 1011.8
20240714054534 62 0.0 2.0 0.00 0.01 0.00 81 1011.8
20240714053533 60 0.0 2.0 0.00 0.01 0.00 84 1011.8
20240714052526 59 0.0 2.0 0.00 0.01 0.00 87 1011.8
20240714051522 57 0.0 2.0 0.00 0.01 0.00 90 1011.7
20240714050518 57 0.0 0.0 0.00 0.01 0.00 89 1011.7
20240714045515 58 0.0 0.0 0.00 0.01 0.00 87 1011.8
20240714044615 58 0.0 2.0 0.00 0.01 0.00 86 1011.7
20240714043609 57 0.0 0.0 0.00 0.01 0.00 87 1011.6
20240714042605 57 0.0 0.0 0.00 0.01 0.00 87 1011.5
20240714041602 55 248 0.0 2.0 0.00 0.01 0.00 91 1011.4
20240714040559 54 248 0.0 2.0 0.00 0.01 0.00 93 1011.5
20240714035555 54 239 2.0 4.0 0.00 0.01 0.00 93 1011.5
20240714034554 54 244 2.0 2.0 0.00 0.01 0.00 93 1011.3
20240714033546 54 259 0.0 2.0 0.00 0.01 0.00 94 1011.1
20240714032543 54 0.0 0.0 0.00 0.01 0.00 93 1011.1
20240714031541 55 0.0 0.0 0.00 0.01 0.00 92 1011.1
20240714030540 55 248 0.0 2.0 0.00 0.01 0.00 92 1011.0
20240714025533 55 0.0 0.0 0.00 0.01 0.00 93 1011.0
20240714024528 55 90 1.0 2.0 0.00 0.01 0.00 92 1011.0
20240714023524 55 225 0.0 2.0 0.00 0.01 0.00 92 1011.1
20240714022520 56 236 0.0 2.0 0.00 0.01 0.00 91 1011.0
20240714021516 56 0.0 2.0 0.00 0.01 0.00 92 1010.9
20240714020612 56 236 0.0 2.0 0.00 0.01 0.00 92 1011.0
20240714015612 56 0.0 2.0 0.00 0.01 0.00 92 1010.9
20240714014609 56 0.0 0.0 0.00 0.01 0.00 92 1010.9
20240714013603 56 90 1.0 2.0 0.00 0.01 0.00 91 1010.8
20240714012558 56 90 0.0 2.0 0.00 0.01 0.00 91 1010.9
20240714011554 56 0.0 2.0 0.00 0.01 0.00 90 1011.1
20240714010550 56 90 0.0 2.0 0.00 0.01 0.00 90 1011.2
20240714005548 56 90 1.0 2.0 0.00 0.01 0.00 89 1011.2
20240714004545 56 101 0.0 2.0 0.00 0.01 0.00 90 1011.3
20240714003542 56 0.0 2.0 0.00 0.01 0.00 90 1011.1
20240714002541 56 0.0 2.0 0.00 0.01 0.00 90 1011.2